الصفحة الرئيسية
METAR-TAF:

METAR-TAF

مطار :

مطار الرباط سلا

الرباط, المغرب

دائرة عرض: 34-03N, خط طول: 006-46W, ارتفاع: 84 متر

مراقبة الطقس الحالي

تاريخ ووقت الإصدار 23 دقيقة قبل الساعة 22:30UTC
ريح 5 عقدة من الغرب
درجة الحرارة 22°درجة مئوية
الرطوبة 65%
ضغط 1018 hPa
الرؤية 10 كم أو أكثر
غيوم مفككة على ارتفاع 2400 قدم
غيوم متفرقة على ارتفاع 10000 قدم

METAR: GMME 152230Z 26005KT 9999 BKN024 SCT100 22/15 Q1018 NOSIG

زمن: 23:53 (22:53 UTC)

توقعات

تاريخ ووقت الإصدار 5ساعات و 53 دقيقة قبل الساعة 17:00UTC
التوقعات صالحة من15 الساعة 18 UTC إلى 16 الساعة 24 UTC
ريح 10 عقدة من الشمال الغربي
الرؤية: 8000 متر
مؤقت
من 15 الساعة 20 UTC إلى 15 الساعة 24 UTC
الرؤية: 5000 متر
غيوم متفرقة على ارتفاع 1500 قدم
غيوم متفرقة على ارتفاع 2000 قدم
مؤقت
من 16 الساعة 12 UTC إلى 16 الساعة 18 UTC
الرؤية 10 كم أو أكثر
الغيوم لا تقل 1500 م ولا وجود لمزنة ركامية السحاب الأسود
مؤقت
من 16 الساعة 18 UTC إلى 16 الساعة 24 UTC
ريح 2 عقدةمن اتجاهات متغيرة

TAF: GMME 151700Z 1518/1624 32010KT 8000 NSC TEMPO 1520/1524 5000 SCT015 SCT020 TEMPO 1612/1618 CAVOK TEMPO 1618/1624 VRB02KT

أرصاد الطقس والتوقعات من أكثر من 4000 مطار (تقارير الطقس للمطار METAR والتنبؤ بالطقس بالمطارTAF).

المحطات المتاحة هي النقط الصفراء والحمراء على الخريطة.

حرك المؤشر فوق النقطة لمعرفة اسم المحطة.

ثم انقر لمعرفة أرصاد وتوقعات الطقس.

لتغيير الخارطة: اضغط على الأزرار الخضراء مع رمز الصليب الأسود للتكبير. على الزر الأخضر مع شرطة للتصغير، أو على الأسهم الخضراء للخرائط المجاورة.


METAR-TAF: